Main page
METAR-TAF:

METAR-TAF

Airports :

MoD Boscombe Down

Boscombe Down, England

latitude: 51-10N, longitude: 001-45W, elevation: 124 m

Current weather observation

The report was made 23 minutes ago, at 22:50 UTC
Wind 14 kt from the South
Temperature 13°C
Humidity 67%
Pressure 1009 hPa
Visibility 10 km or more

METAR: EGDM 052250Z AUTO 19014KT 9999 FEW070/// BKN090/// 13/07 Q1009 RERA

Time: 00:13 (23:13 UTC)


TAF: missing

Weather observations and forecasts of more than 4000 airports (METAR and TAF reports).

The available stations are represented by yellow and red dots on the map.

Hover mouse over dot to see the name of the station.

Then click to see weather observations and forecasts.

To change the map : click on the green buttons with a black cross to zoom in, on the green button with a dash to zoom out, or on the green arrows for adjacent maps.


METAR-TAF: